createdAt,value
2022-10-19T00:01:19.342Z,17.40
2022-10-19T00:03:50.673Z,17.33
2022-10-19T00:06:28.989Z,17.17
2022-10-19T00:09:00.357Z,18.42
2022-10-19T00:11:28.804Z,18.63
2022-10-19T00:13:57.626Z,18.73
2022-10-19T00:16:28.339Z,21.00
2022-10-19T00:19:01.257Z,19.60
2022-10-19T00:21:28.973Z,18.50
2022-10-19T00:23:56.360Z,21.10
2022-10-19T00:26:23.490Z,16.27
2022-10-19T00:28:53.011Z,19.65
2022-10-19T00:31:20.164Z,20.55
2022-10-19T00:33:47.834Z,23.00
2022-10-19T00:36:24.850Z,24.48
2022-10-19T00:38:53.181Z,21.90
2022-10-19T00:41:22.749Z,18.77
2022-10-19T00:44:05.339Z,19.60
2022-10-19T00:46:42.226Z,20.27
2022-10-19T00:49:23.650Z,19.02
2022-10-19T00:52:04.591Z,20.02
2022-10-19T00:54:37.292Z,19.73
2022-10-19T00:57:05.504Z,21.00
2022-10-19T00:59:33.831Z,21.73
2022-10-19T01:02:04.468Z,21.65
2022-10-19T01:04:36.036Z,16.40
2022-10-19T01:07:06.937Z,15.98
2022-10-19T01:09:34.883Z,17.60
2022-10-19T01:12:32.278Z,16.20
2022-10-19T01:15:26.273Z,20.10
2022-10-19T01:18:14.960Z,18.38
2022-10-19T01:21:06.023Z,17.85
2022-10-19T01:23:44.891Z,17.50
2022-10-19T01:26:55.611Z,18.75
2022-10-19T01:29:57.088Z,17.17
2022-10-19T01:32:59.299Z,20.55
2022-10-19T01:35:42.974Z,15.18
2022-10-19T01:38:47.157Z,20.95
2022-10-19T01:41:26.303Z,17.23
2022-10-19T01:44:08.069Z,16.88
2022-10-19T01:46:41.300Z,17.88
2022-10-19T01:49:51.670Z,16.30
2022-10-19T01:52:21.884Z,16.92
2022-10-19T01:54:53.804Z,18.92
2022-10-19T01:57:29.305Z,15.85
2022-10-19T01:59:58.230Z,15.45
2022-10-19T02:02:29.242Z,15.05
2022-10-19T02:04:57.672Z,17.58
2022-10-19T02:07:25.726Z,14.63
2022-10-19T02:09:52.834Z,14.07
2022-10-19T02:12:21.252Z,13.88
2022-10-19T02:14:54.932Z,14.45
2022-10-19T02:17:28.691Z,13.10
2022-10-19T02:19:56.970Z,11.73
2022-10-19T02:22:24.298Z,16.90
2022-10-19T02:24:51.343Z,13.15
2022-10-19T02:27:19.093Z,11.60
2022-10-19T02:29:46.369Z,12.65
2022-10-19T02:32:14.590Z,13.50
2022-10-19T02:34:42.062Z,14.13
2022-10-19T02:37:09.458Z,10.80
2022-10-19T02:39:37.545Z,12.65
2022-10-19T02:42:46.991Z,16.50
2022-10-19T02:45:37.306Z,13.02
2022-10-19T02:48:19.545Z,12.15
2022-10-19T02:50:52.012Z,11.55
2022-10-19T02:53:19.482Z,13.15
2022-10-19T02:55:49.492Z,11.27
2022-10-19T02:58:16.593Z,15.43
2022-10-19T03:00:43.672Z,10.77
2022-10-19T03:03:11.365Z,12.52
2022-10-19T03:05:38.447Z,11.48
2022-10-19T03:08:05.665Z,11.52
2022-10-19T03:10:32.890Z,11.02
2022-10-19T03:13:00.329Z,10.77
2022-10-19T03:15:29.770Z,12.70
2022-10-19T03:17:57.253Z,11.70
2022-10-19T03:20:24.467Z,10.48
2022-10-19T03:22:54.607Z,11.40
2022-10-19T03:25:21.671Z,9.70
2022-10-19T03:27:48.697Z,9.30
2022-10-19T03:30:15.891Z,10.18
2022-10-19T03:32:42.972Z,9.27
2022-10-19T03:35:10.258Z,7.30
2022-10-19T03:37:37.603Z,10.60
2022-10-19T03:40:05.691Z,10.02
2022-10-19T03:42:32.728Z,8.85
2022-10-19T03:44:59.812Z,8.52
2022-10-19T03:47:26.902Z,9.13
2022-10-19T03:49:54.028Z,9.85
2022-10-19T03:52:21.188Z,10.57
2022-10-19T03:54:51.478Z,14.00
2022-10-19T03:57:18.933Z,9.27
2022-10-19T03:59:46.104Z,9.57
2022-10-19T04:02:13.203Z,8.68
2022-10-19T04:04:40.285Z,10.90
2022-10-19T04:07:08.744Z,10.27
2022-10-19T04:09:35.802Z,7.90
2022-10-19T04:12:03.945Z,9.80
2022-10-19T04:14:32.602Z,8.30
2022-10-19T04:17:02.351Z,8.15
2022-10-19T04:19:29.620Z,8.32
2022-10-19T04:21:56.991Z,8.13
2022-10-19T04:24:24.569Z,14.43
2022-10-19T04:26:55.383Z,13.98
2022-10-19T04:29:29.501Z,14.25
2022-10-19T04:31:58.003Z,8.80
2022-10-19T04:34:25.252Z,9.75
2022-10-19T04:36:53.962Z,7.57
2022-10-19T04:39:21.044Z,9.75
2022-10-19T04:41:48.082Z,9.35
2022-10-19T04:44:15.651Z,10.30
2022-10-19T04:46:42.750Z,8.38
2022-10-19T04:49:09.822Z,9.20
2022-10-19T04:51:36.868Z,9.85
2022-10-19T04:54:04.866Z,9.20
2022-10-19T04:56:32.585Z,10.55
2022-10-19T04:59:01.046Z,7.63
2022-10-19T05:01:30.341Z,11.85
2022-10-19T05:04:00.888Z,8.75
2022-10-19T05:06:29.578Z,6.68
2022-10-19T05:08:57.512Z,8.50
2022-10-19T05:11:25.096Z,9.98
2022-10-19T05:13:52.292Z,9.95
2022-10-19T05:16:23.195Z,10.35
2022-10-19T05:18:53.153Z,7.07
2022-10-19T05:21:21.843Z,9.80
2022-10-19T05:23:53.135Z,7.90
2022-10-19T05:26:26.460Z,10.77
2022-10-19T05:28:57.418Z,9.00
2022-10-19T05:31:28.365Z,9.73
2022-10-19T05:33:56.450Z,14.00
2022-10-19T05:36:34.389Z,7.68
2022-10-19T05:39:07.795Z,10.55
2022-10-19T05:41:35.482Z,8.55
2022-10-19T05:44:04.134Z,7.20
2022-10-19T05:46:32.908Z,7.45
2022-10-19T05:49:00.583Z,11.52
2022-10-19T05:51:28.831Z,9.85
2022-10-19T05:53:56.966Z,8.88
2022-10-19T05:56:27.935Z,7.82
2022-10-19T05:58:57.304Z,7.80
2022-10-19T06:01:24.822Z,8.25
2022-10-19T06:03:54.290Z,6.80
2022-10-19T06:06:21.790Z,10.23
2022-10-19T06:08:49.715Z,7.68
2022-10-19T06:11:20.290Z,7.15
2022-10-19T06:13:50.667Z,8.65
2022-10-19T06:16:19.788Z,7.63
2022-10-19T06:18:47.602Z,9.65
2022-10-19T06:21:19.059Z,8.23
2022-10-19T06:23:55.048Z,11.40
2022-10-19T06:26:23.545Z,9.80
2022-10-19T06:28:51.507Z,11.93
2022-10-19T06:31:18.773Z,13.23
2022-10-19T06:33:49.214Z,8.90
2022-10-19T06:36:23.302Z,7.68
2022-10-19T06:38:51.060Z,5.88
2022-10-19T06:41:18.172Z,8.30
2022-10-19T06:43:49.473Z,7.78
2022-10-19T06:46:23.214Z,7.45
2022-10-19T06:49:02.296Z,7.70
2022-10-19T06:51:34.051Z,8.35
2022-10-19T06:54:01.199Z,7.85
2022-10-19T06:56:28.546Z,9.02
2022-10-19T06:58:55.899Z,6.22
2022-10-19T07:01:23.494Z,6.68
2022-10-19T07:03:52.783Z,6.50
2022-10-19T07:06:20.729Z,6.70
2022-10-19T07:08:48.707Z,6.75
2022-10-19T07:11:19.454Z,8.82
2022-10-19T07:13:46.528Z,10.73
2022-10-19T07:16:20.645Z,10.43
2022-10-19T07:18:51.170Z,8.70
2022-10-19T07:21:21.848Z,7.80
2022-10-19T07:23:49.220Z,8.43
2022-10-19T07:26:27.722Z,6.78
2022-10-19T07:28:57.266Z,6.80
2022-10-19T07:31:25.796Z,6.30
2022-10-19T07:34:02.163Z,10.73
2022-10-19T07:36:31.696Z,8.43
2022-10-19T07:38:58.944Z,7.53
2022-10-19T07:41:27.119Z,6.90
2022-10-19T07:43:55.046Z,10.30
2022-10-19T07:46:26.305Z,9.30
2022-10-19T07:48:53.685Z,12.55
2022-10-19T07:51:22.107Z,10.15
2022-10-19T07:53:49.382Z,6.82
2022-10-19T07:56:23.747Z,9.55
2022-10-19T07:58:52.884Z,6.75
2022-10-19T08:01:23.323Z,6.30
2022-10-19T08:06:41.021Z,6.32
2022-10-19T08:09:08.255Z,5.22
2022-10-19T08:11:36.203Z,4.47
2022-10-19T08:14:04.068Z,7.75
2022-10-19T08:16:40.344Z,5.15
2022-10-19T08:19:10.423Z,8.98
2022-10-19T08:21:40.087Z,7.53
2022-10-19T08:24:08.133Z,8.20
2022-10-19T08:26:38.312Z,7.28
2022-10-19T08:29:18.411Z,9.07
2022-10-19T08:31:47.819Z,13.45
2022-10-19T08:34:16.059Z,5.30
2022-10-19T08:36:43.862Z,4.10
2022-10-19T08:39:12.902Z,8.88
2022-10-19T08:42:19.625Z,4.07
2022-10-19T08:44:55.178Z,5.95
2022-10-19T08:47:40.708Z,4.43
2022-10-19T08:50:26.111Z,5.03
2022-10-19T08:53:17.918Z,5.13
2022-10-19T08:56:04.895Z,5.45
2022-10-19T08:59:04.131Z,4.65
2022-10-19T09:01:52.527Z,3.92
2022-10-19T09:04:48.219Z,3.95
2022-10-19T09:07:34.701Z,3.40
2022-10-19T09:10:14.771Z,3.88
2022-10-19T09:13:03.611Z,4.88
2022-10-19T09:15:47.085Z,4.47
2022-10-19T09:18:33.005Z,4.10
2022-10-19T09:21:30.994Z,4.03
2022-10-19T09:24:11.252Z,5.07
2022-10-19T09:26:52.143Z,8.77
2022-10-19T09:30:01.402Z,4.53
2022-10-19T09:32:35.205Z,6.05
2022-10-19T09:35:15.728Z,7.97
2022-10-19T09:37:48.523Z,7.32
2022-10-19T09:40:24.571Z,5.75
2022-10-19T09:42:57.139Z,5.43
2022-10-19T09:45:46.136Z,5.10
2022-10-19T09:48:42.453Z,7.28
2022-10-19T09:51:15.989Z,7.05
2022-10-19T09:53:55.251Z,4.20
2022-10-19T09:56:25.938Z,3.80
2022-10-19T09:58:59.656Z,6.55
2022-10-19T10:01:41.624Z,6.32
2022-10-19T10:04:19.045Z,6.20
2022-10-19T10:06:48.966Z,4.28
2022-10-19T10:09:28.806Z,8.32
2022-10-19T10:12:00.336Z,3.90
2022-10-19T10:14:35.095Z,7.45
2022-10-19T10:17:06.788Z,3.47
2022-10-19T10:19:36.180Z,4.00
2022-10-19T10:22:04.720Z,4.93
2022-10-19T10:24:34.321Z,5.68
2022-10-19T10:27:05.605Z,3.63
2022-10-19T10:29:39.081Z,4.32
2022-10-19T10:32:20.497Z,4.43
2022-10-19T10:35:16.900Z,4.03
2022-10-19T10:37:46.889Z,3.72
2022-10-19T10:40:23.750Z,5.03
2022-10-19T10:42:54.403Z,4.18
2022-10-19T10:45:43.004Z,4.82
2022-10-19T10:48:36.811Z,4.55
2022-10-19T10:51:20.004Z,4.80
2022-10-19T10:53:47.600Z,3.83
2022-10-19T10:56:33.401Z,5.15
2022-10-19T10:59:12.060Z,5.38
2022-10-19T11:02:01.287Z,6.13
2022-10-19T11:04:36.680Z,7.90
2022-10-19T11:07:21.672Z,5.85
2022-10-19T11:10:06.910Z,3.95
2022-10-19T11:12:45.328Z,8.20
2022-10-19T11:15:23.478Z,4.05
2022-10-19T11:18:00.459Z,5.93
2022-10-19T11:20:32.284Z,3.92
2022-10-19T11:23:19.091Z,3.15
2022-10-19T11:25:54.450Z,3.65
2022-10-19T11:28:58.250Z,4.00
2022-10-19T11:31:47.914Z,4.57
2022-10-19T11:34:45.743Z,4.10
2022-10-19T11:38:18.062Z,4.82
2022-10-19T11:41:18.908Z,3.85
2022-10-19T11:44:01.706Z,4.82
2022-10-19T11:46:47.036Z,5.78
2022-10-19T11:49:51.462Z,9.63
2022-10-19T11:53:01.156Z,9.50
2022-10-19T11:55:38.253Z,3.55
2022-10-19T11:58:41.169Z,9.48
2022-10-19T12:01:58.589Z,4.72
2022-10-19T12:04:54.555Z,27.67
2022-10-19T12:08:05.420Z,5.15
2022-10-19T12:10:50.599Z,5.30
2022-10-19T12:13:26.098Z,4.22
2022-10-19T12:18:38.533Z,5.18
2022-10-19T12:21:18.666Z,7.82
2022-10-19T12:23:47.064Z,4.72
2022-10-19T12:26:21.348Z,4.93
2022-10-19T12:28:55.890Z,2.23
2022-10-19T12:31:26.216Z,2.55
2022-10-19T12:34:28.284Z,4.38
2022-10-19T12:37:36.652Z,7.90
2022-10-19T12:40:26.098Z,6.90
2022-10-19T12:43:09.608Z,7.20
2022-10-19T12:46:02.040Z,11.48
2022-10-19T12:48:29.090Z,6.03
2022-10-19T12:50:57.260Z,5.38
2022-10-19T12:53:40.944Z,5.47
2022-10-19T12:56:20.270Z,8.77
2022-10-19T12:59:03.730Z,10.48
2022-10-19T13:01:36.679Z,10.73
2022-10-19T13:04:21.327Z,18.73
2022-10-19T13:07:10.614Z,6.47
2022-10-19T13:09:48.246Z,4.60
2022-10-19T13:12:21.805Z,12.80
2022-10-19T13:14:57.387Z,8.60
2022-10-19T13:17:46.560Z,6.68
2022-10-19T13:20:13.563Z,6.30
2022-10-19T13:23:13.255Z,8.95
2022-10-19T13:25:41.706Z,6.38
2022-10-19T13:28:17.604Z,15.32
2022-10-19T13:30:44.534Z,7.88
2022-10-19T13:33:29.738Z,6.88
2022-10-19T13:36:00.018Z,11.23
2022-10-19T13:39:06.087Z,5.65
2022-10-19T13:41:39.004Z,6.00
2022-10-19T13:44:08.939Z,8.20
2022-10-19T13:47:07.030Z,9.73
2022-10-19T13:50:25.991Z,9.30
2022-10-19T13:53:01.731Z,8.80
2022-10-19T13:55:52.058Z,9.98
2022-10-19T13:59:20.083Z,9.25
2022-10-19T14:02:50.687Z,11.52
2022-10-19T14:06:06.658Z,8.25
2022-10-19T14:09:05.018Z,12.48
2022-10-19T14:11:41.659Z,9.70
2022-10-19T14:14:11.705Z,13.73
2022-10-19T14:17:03.961Z,11.02
2022-10-19T14:19:42.002Z,10.13
2022-10-19T14:22:36.046Z,10.25
2022-10-19T14:25:21.944Z,12.02
2022-10-19T14:30:22.776Z,8.82
2022-10-19T14:32:50.463Z,12.52
2022-10-19T14:35:35.688Z,7.90
2022-10-19T14:38:06.410Z,11.32
2022-10-19T14:40:39.197Z,8.60
2022-10-19T14:43:26.665Z,13.18
2022-10-19T14:46:08.741Z,11.30
2022-10-19T14:48:48.572Z,8.40
2022-10-19T14:51:50.557Z,9.85
2022-10-19T14:54:40.664Z,5.65
2022-10-19T14:57:28.674Z,11.73
2022-10-19T15:00:11.308Z,7.80
2022-10-19T15:02:47.071Z,14.50
2022-10-19T15:05:28.189Z,13.52
2022-10-19T15:07:55.879Z,11.63
2022-10-19T15:10:30.294Z,9.88
2022-10-19T15:13:06.692Z,10.95
2022-10-19T15:15:35.942Z,16.25
2022-10-19T15:18:06.381Z,13.65
2022-10-19T15:20:49.618Z,8.80
2022-10-19T15:23:52.328Z,9.48
2022-10-19T15:26:24.478Z,8.15
2022-10-19T15:28:52.856Z,7.15
2022-10-19T15:31:28.797Z,14.60
2022-10-19T15:34:00.608Z,5.22
2022-10-19T15:36:30.456Z,7.43
2022-10-19T15:39:18.550Z,8.63
2022-10-19T15:41:52.856Z,7.30
2022-10-19T15:44:44.265Z,4.65
2022-10-19T15:47:19.149Z,8.50
2022-10-19T15:49:53.133Z,10.80
2022-10-19T15:52:43.242Z,10.57
2022-10-19T15:55:12.318Z,15.73
2022-10-19T15:57:39.967Z,10.15
2022-10-19T16:00:18.012Z,6.53
2022-10-19T16:02:45.094Z,10.68
2022-10-19T16:05:12.252Z,7.97
2022-10-19T16:07:41.996Z,9.38
2022-10-19T16:10:16.473Z,8.50
2022-10-19T16:12:44.017Z,9.85
2022-10-19T16:15:23.075Z,15.05
2022-10-19T16:17:59.589Z,7.50
2022-10-19T16:20:29.708Z,7.55
2022-10-19T16:22:58.500Z,12.57
2022-10-19T16:25:25.925Z,17.40
2022-10-19T16:27:54.437Z,10.13
2022-10-19T16:30:23.718Z,7.00
2022-10-19T16:32:51.836Z,11.02
2022-10-19T16:35:18.993Z,6.60
2022-10-19T16:37:46.845Z,6.35
2022-10-19T16:40:14.011Z,8.55
2022-10-19T16:42:41.626Z,7.88
2022-10-19T16:45:10.010Z,9.20
2022-10-19T16:47:37.803Z,9.73
2022-10-19T16:50:06.597Z,8.13
2022-10-19T16:52:34.912Z,7.78
2022-10-19T16:55:02.605Z,8.70
2022-10-19T16:57:29.879Z,4.32
2022-10-19T16:59:57.753Z,8.57
2022-10-19T17:02:25.327Z,7.25
2022-10-19T17:04:52.686Z,4.70
2022-10-19T17:07:19.934Z,6.10
2022-10-19T17:09:49.713Z,7.55
2022-10-19T17:12:19.929Z,4.47
2022-10-19T17:14:47.918Z,6.40
2022-10-19T17:17:17.287Z,6.60
2022-10-19T17:19:44.916Z,4.97
2022-10-19T17:22:14.104Z,7.50
2022-10-19T17:24:41.897Z,5.50
2022-10-19T17:27:09.710Z,8.73
2022-10-19T17:29:38.964Z,5.03
2022-10-19T17:32:07.051Z,6.03
2022-10-19T17:34:35.204Z,7.78
2022-10-19T17:37:03.261Z,6.20
2022-10-19T17:39:32.346Z,6.05
2022-10-19T17:42:02.352Z,7.32
2022-10-19T17:44:31.948Z,6.30
2022-10-19T17:47:01.520Z,5.75
2022-10-19T17:49:30.410Z,7.63
2022-10-19T17:51:58.861Z,5.13
2022-10-19T17:54:27.888Z,4.32
2022-10-19T17:56:56.170Z,2.92
2022-10-19T17:59:34.585Z,4.70
2022-10-19T18:02:04.224Z,5.63
2022-10-19T18:04:33.096Z,2.83
2022-10-19T18:07:01.982Z,10.38
2022-10-19T18:09:30.078Z,3.67
2022-10-19T18:12:01.401Z,4.40
2022-10-19T18:14:32.553Z,3.88
2022-10-19T18:17:00.383Z,9.30
2022-10-19T18:19:29.190Z,5.63
2022-10-19T18:21:57.265Z,6.47
2022-10-19T18:24:26.561Z,3.67
2022-10-19T18:26:55.201Z,4.03
2022-10-19T18:29:26.258Z,4.35
2022-10-19T18:32:01.938Z,5.03
2022-10-19T18:34:34.082Z,4.43
2022-10-19T18:37:04.085Z,3.67
2022-10-19T18:39:32.046Z,4.53
2022-10-19T18:42:00.005Z,5.55
2022-10-19T18:44:30.374Z,8.93
2022-10-19T18:47:00.759Z,2.53
2022-10-19T18:49:28.606Z,5.55
2022-10-19T18:51:56.641Z,8.38
2022-10-19T18:54:28.412Z,4.10
2022-10-19T18:56:57.430Z,6.88
2022-10-19T19:01:57.023Z,3.67
2022-10-19T19:04:26.027Z,5.55
2022-10-19T19:06:54.259Z,6.05
2022-10-19T19:09:22.820Z,5.47
2022-10-19T19:11:52.046Z,4.03
2022-10-19T19:14:24.795Z,5.35
2022-10-19T19:16:52.926Z,3.92
2022-10-19T19:19:21.491Z,5.72
2022-10-19T19:21:50.553Z,6.97
2022-10-19T19:24:22.258Z,5.07
2022-10-19T19:26:54.155Z,7.90
2022-10-19T19:29:24.892Z,4.88
2022-10-19T19:31:53.843Z,4.97
2022-10-19T19:34:22.029Z,3.20
2022-10-19T19:36:51.036Z,3.00
2022-10-19T19:39:22.466Z,10.00
2022-10-19T19:41:52.800Z,8.82
2022-10-19T19:44:22.234Z,5.78
2022-10-19T19:46:50.440Z,4.18
2022-10-19T19:49:18.849Z,8.60
2022-10-19T19:51:47.078Z,3.45
2022-10-19T19:54:15.269Z,4.03
2022-10-19T19:56:43.407Z,5.03
2022-10-19T19:59:13.361Z,4.43
2022-10-19T20:01:42.154Z,4.18
2022-10-19T20:04:11.513Z,3.38
2022-10-19T20:06:41.200Z,5.78
2022-10-19T20:09:10.789Z,6.72
2022-10-19T20:11:42.784Z,6.82
2022-10-19T20:14:12.964Z,3.08
2022-10-19T20:16:42.806Z,6.63
2022-10-19T20:19:14.882Z,4.60
2022-10-19T20:21:43.593Z,4.82
2022-10-19T20:24:12.057Z,5.35
2022-10-19T20:26:40.591Z,7.25
2022-10-19T20:29:08.477Z,4.43
2022-10-19T20:31:40.112Z,5.63
2022-10-19T20:34:11.221Z,8.57
2022-10-19T20:36:39.354Z,10.07
2022-10-19T20:39:06.772Z,7.07
2022-10-19T20:41:34.834Z,6.10
2022-10-19T20:44:03.026Z,4.10
2022-10-19T20:46:32.179Z,6.28
2022-10-19T20:49:01.995Z,6.40
2022-10-19T20:51:37.187Z,4.90
2022-10-19T20:54:10.993Z,5.10
2022-10-19T20:56:41.296Z,4.85
2022-10-19T20:59:14.986Z,4.65
2022-10-19T21:01:44.477Z,13.00
2022-10-19T21:04:14.298Z,7.35
2022-10-19T21:06:48.649Z,6.40
2022-10-19T21:09:20.649Z,4.95
2022-10-19T21:11:53.035Z,6.18
2022-10-19T21:14:27.005Z,7.10
2022-10-19T21:16:57.418Z,7.05
2022-10-19T21:19:27.265Z,9.10
2022-10-19T21:22:03.990Z,6.45
2022-10-19T21:24:35.345Z,7.47
2022-10-19T21:27:07.504Z,4.25
2022-10-19T21:29:35.964Z,6.78
2022-10-19T21:32:03.369Z,5.13
2022-10-19T21:34:31.890Z,7.60
2022-10-19T21:36:59.162Z,5.47
2022-10-19T21:39:26.198Z,5.28
2022-10-19T21:41:53.581Z,9.00
2022-10-19T21:44:23.097Z,5.35
2022-10-19T21:46:50.459Z,7.63
2022-10-19T21:49:17.704Z,5.25
2022-10-19T21:51:51.010Z,4.63
2022-10-19T21:54:22.029Z,4.47
2022-10-19T21:56:49.530Z,3.88
2022-10-19T21:59:17.324Z,9.45
2022-10-19T22:01:44.846Z,7.25
2022-10-19T22:04:18.024Z,3.88
2022-10-19T22:06:45.477Z,6.10
2022-10-19T22:09:20.140Z,5.45
2022-10-19T22:11:47.853Z,4.53
2022-10-19T22:14:16.990Z,5.47
2022-10-19T22:16:44.673Z,8.20
2022-10-19T22:19:12.742Z,4.72
2022-10-19T22:21:40.664Z,6.43
2022-10-19T22:24:12.762Z,5.95
2022-10-19T22:26:44.342Z,8.98
2022-10-19T22:29:11.781Z,5.88
2022-10-19T22:31:39.015Z,7.28
2022-10-19T22:34:14.027Z,10.73
2022-10-19T22:36:41.446Z,8.48
2022-10-19T22:39:09.300Z,4.22
2022-10-19T22:41:36.437Z,4.68
2022-10-19T22:44:03.538Z,7.88
2022-10-19T22:46:30.654Z,9.10
2022-10-19T22:48:58.141Z,9.35
2022-10-19T22:51:25.415Z,5.75
2022-10-19T22:53:52.511Z,5.40
2022-10-19T22:56:19.739Z,5.28
2022-10-19T22:58:46.802Z,10.07
2022-10-19T23:01:15.870Z,5.55
2022-10-19T23:03:44.046Z,5.15
2022-10-19T23:06:14.213Z,6.07
2022-10-19T23:08:42.624Z,5.43
2022-10-19T23:11:09.791Z,3.83
2022-10-19T23:13:37.261Z,6.10
2022-10-19T23:16:04.611Z,12.77
2022-10-19T23:18:36.297Z,9.18
2022-10-19T23:21:11.318Z,4.45
2022-10-19T23:23:39.377Z,7.40
2022-10-19T23:26:15.525Z,8.13
2022-10-19T23:28:45.302Z,7.57
2022-10-19T23:31:26.032Z,6.30
2022-10-19T23:33:54.280Z,10.35
2022-10-19T23:36:24.772Z,6.18
2022-10-19T23:38:53.129Z,5.65
2022-10-19T23:41:21.127Z,8.80
2022-10-19T23:43:48.513Z,6.35
2022-10-19T23:46:15.938Z,9.75
2022-10-19T23:48:43.306Z,7.47
2022-10-19T23:51:17.438Z,5.85
2022-10-19T23:53:47.617Z,7.40
2022-10-19T23:56:17.888Z,5.95
2022-10-19T23:58:45.961Z,6.75
